sensor_id;sensor_type;location;lat;lon;timestamp;P1;durP1;ratioP1;P2;durP2;ratioP2
19329;SDS011;9799;48.214;16.388;2022-08-18T00:01:34;10.32;;;8.20;;
19329;SDS011;9799;48.214;16.388;2022-08-18T00:05:00;10.27;;;7.57;;
19329;SDS011;9799;48.214;16.388;2022-08-18T00:08:21;17.42;;;8.05;;
19329;SDS011;9799;48.214;16.388;2022-08-18T00:11:42;8.57;;;7.63;;
19329;SDS011;9799;48.214;16.388;2022-08-18T00:15:04;8.40;;;7.63;;
19329;SDS011;9799;48.214;16.388;2022-08-18T00:18:26;8.30;;;7.55;;
19329;SDS011;9799;48.214;16.388;2022-08-18T00:21:49;8.60;;;6.93;;
19329;SDS011;9799;48.214;16.388;2022-08-18T00:25:12;8.18;;;7.47;;
19329;SDS011;9799;48.214;16.388;2022-08-18T00:28:34;7.80;;;7.07;;
19329;SDS011;9799;48.214;16.388;2022-08-18T00:31:55;9.50;;;7.15;;
19329;SDS011;9799;48.214;16.388;2022-08-18T00:35:19;9.40;;;7.50;;
19329;SDS011;9799;48.214;16.388;2022-08-18T00:38:46;8.98;;;6.90;;
19329;SDS011;9799;48.214;16.388;2022-08-18T00:42:11;7.78;;;7.07;;
19329;SDS011;9799;48.214;16.388;2022-08-18T00:45:35;8.10;;;7.40;;
19329;SDS011;9799;48.214;16.388;2022-08-18T00:48:59;9.05;;;8.15;;
19329;SDS011;9799;48.214;16.388;2022-08-18T00:52:20;12.27;;;7.53;;
19329;SDS011;9799;48.214;16.388;2022-08-18T00:55:45;8.32;;;7.50;;
19329;SDS011;9799;48.214;16.388;2022-08-18T00:59:08;9.88;;;8.93;;
19329;SDS011;9799;48.214;16.388;2022-08-18T01:02:34;8.55;;;7.32;;
19329;SDS011;9799;48.214;16.388;2022-08-18T01:06:02;8.98;;;7.40;;
19329;SDS011;9799;48.214;16.388;2022-08-18T01:09:26;8.07;;;7.30;;
19329;SDS011;9799;48.214;16.388;2022-08-18T01:12:49;8.38;;;7.68;;
19329;SDS011;9799;48.214;16.388;2022-08-18T01:16:12;8.48;;;7.68;;
19329;SDS011;9799;48.214;16.388;2022-08-18T01:19:50;9.40;;;7.68;;
19329;SDS011;9799;48.214;16.388;2022-08-18T01:23:31;11.10;;;7.60;;
19329;SDS011;9799;48.214;16.388;2022-08-18T01:26:52;10.55;;;8.07;;
19329;SDS011;9799;48.214;16.388;2022-08-18T01:30:15;11.82;;;8.70;;
19329;SDS011;9799;48.214;16.388;2022-08-18T01:33:38;9.75;;;8.75;;
19329;SDS011;9799;48.214;16.388;2022-08-18T01:37:01;9.15;;;8.07;;
19329;SDS011;9799;48.214;16.388;2022-08-18T01:40:25;9.32;;;8.43;;
19329;SDS011;9799;48.214;16.388;2022-08-18T01:43:46;11.38;;;8.70;;
19329;SDS011;9799;48.214;16.388;2022-08-18T01:47:08;10.45;;;8.60;;
19329;SDS011;9799;48.214;16.388;2022-08-18T01:50:31;8.85;;;8.05;;
19329;SDS011;9799;48.214;16.388;2022-08-18T01:53:53;10.07;;;8.20;;
19329;SDS011;9799;48.214;16.388;2022-08-18T01:57:16;11.07;;;8.65;;
19329;SDS011;9799;48.214;16.388;2022-08-18T02:00:38;10.27;;;9.00;;
19329;SDS011;9799;48.214;16.388;2022-08-18T02:04:01;12.45;;;8.02;;
19329;SDS011;9799;48.214;16.388;2022-08-18T02:07:22;11.38;;;8.77;;
19329;SDS011;9799;48.214;16.388;2022-08-18T02:10:43;9.95;;;8.82;;
19329;SDS011;9799;48.214;16.388;2022-08-18T02:14:06;9.52;;;8.50;;
19329;SDS011;9799;48.214;16.388;2022-08-18T02:17:27;11.95;;;8.70;;
19329;SDS011;9799;48.214;16.388;2022-08-18T02:20:48;12.73;;;9.13;;
19329;SDS011;9799;48.214;16.388;2022-08-18T02:24:10;19.25;;;9.18;;
19329;SDS011;9799;48.214;16.388;2022-08-18T02:27:31;9.20;;;8.25;;
19329;SDS011;9799;48.214;16.388;2022-08-18T02:30:54;12.85;;;8.65;;
19329;SDS011;9799;48.214;16.388;2022-08-18T02:34:15;11.18;;;8.90;;
19329;SDS011;9799;48.214;16.388;2022-08-18T02:37:36;9.55;;;8.52;;
19329;SDS011;9799;48.214;16.388;2022-08-18T02:40:59;13.57;;;9.95;;
19329;SDS011;9799;48.214;16.388;2022-08-18T02:44:24;13.18;;;8.07;;
19329;SDS011;9799;48.214;16.388;2022-08-18T02:47:51;11.30;;;9.48;;
19329;SDS011;9799;48.214;16.388;2022-08-18T02:51:14;12.23;;;8.40;;
19329;SDS011;9799;48.214;16.388;2022-08-18T02:54:36;9.43;;;8.43;;
19329;SDS011;9799;48.214;16.388;2022-08-18T02:57:57;10.77;;;8.90;;
19329;SDS011;9799;48.214;16.388;2022-08-18T03:01:22;9.65;;;8.75;;
19329;SDS011;9799;48.214;16.388;2022-08-18T03:04:46;10.45;;;7.68;;
19329;SDS011;9799;48.214;16.388;2022-08-18T03:08:07;8.98;;;8.18;;
19329;SDS011;9799;48.214;16.388;2022-08-18T03:11:29;9.48;;;7.75;;
19329;SDS011;9799;48.214;16.388;2022-08-18T03:14:50;12.63;;;8.18;;
19329;SDS011;9799;48.214;16.388;2022-08-18T03:18:11;7.80;;;7.10;;
19329;SDS011;9799;48.214;16.388;2022-08-18T03:21:33;9.10;;;7.80;;
19329;SDS011;9799;48.214;16.388;2022-08-18T03:24:57;9.13;;;7.68;;
19329;SDS011;9799;48.214;16.388;2022-08-18T03:28:18;9.57;;;8.40;;
19329;SDS011;9799;48.214;16.388;2022-08-18T03:31:41;11.35;;;8.45;;
19329;SDS011;9799;48.214;16.388;2022-08-18T03:35:03;10.02;;;7.72;;
19329;SDS011;9799;48.214;16.388;2022-08-18T03:38:27;8.48;;;7.68;;
19329;SDS011;9799;48.214;16.388;2022-08-18T03:41:49;8.70;;;8.00;;
19329;SDS011;9799;48.214;16.388;2022-08-18T03:45:12;11.20;;;8.10;;
19329;SDS011;9799;48.214;16.388;2022-08-18T03:48:33;9.75;;;8.75;;
19329;SDS011;9799;48.214;16.388;2022-08-18T03:51:56;10.30;;;8.25;;
19329;SDS011;9799;48.214;16.388;2022-08-18T03:55:20;15.15;;;9.15;;
19329;SDS011;9799;48.214;16.388;2022-08-18T03:58:42;10.10;;;9.15;;
19329;SDS011;9799;48.214;16.388;2022-08-18T04:02:04;11.82;;;8.18;;
19329;SDS011;9799;48.214;16.388;2022-08-18T04:05:25;11.55;;;8.95;;
19329;SDS011;9799;48.214;16.388;2022-08-18T04:08:46;9.30;;;8.40;;
19329;SDS011;9799;48.214;16.388;2022-08-18T04:12:12;9.40;;;8.50;;
19329;SDS011;9799;48.214;16.388;2022-08-18T04:15:35;9.93;;;9.02;;
19329;SDS011;9799;48.214;16.388;2022-08-18T04:18:57;16.30;;;9.25;;
19329;SDS011;9799;48.214;16.388;2022-08-18T04:22:21;9.30;;;8.50;;
19329;SDS011;9799;48.214;16.388;2022-08-18T04:25:43;12.68;;;10.40;;
19329;SDS011;9799;48.214;16.388;2022-08-18T04:29:06;11.88;;;9.63;;
19329;SDS011;9799;48.214;16.388;2022-08-18T04:32:29;14.38;;;9.20;;
19329;SDS011;9799;48.214;16.388;2022-08-18T04:35:50;11.93;;;9.57;;
19329;SDS011;9799;48.214;16.388;2022-08-18T04:39:12;16.35;;;10.40;;
19329;SDS011;9799;48.214;16.388;2022-08-18T04:42:33;12.48;;;10.55;;
19329;SDS011;9799;48.214;16.388;2022-08-18T04:45:56;11.48;;;10.15;;
19329;SDS011;9799;48.214;16.388;2022-08-18T04:49:20;14.00;;;9.93;;
19329;SDS011;9799;48.214;16.388;2022-08-18T04:52:44;13.50;;;9.73;;
19329;SDS011;9799;48.214;16.388;2022-08-18T04:56:23;13.90;;;9.63;;
19329;SDS011;9799;48.214;16.388;2022-08-18T04:59:46;11.00;;;8.85;;
19329;SDS011;9799;48.214;16.388;2022-08-18T05:03:10;11.70;;;9.05;;
19329;SDS011;9799;48.214;16.388;2022-08-18T05:06:31;11.30;;;9.77;;
19329;SDS011;9799;48.214;16.388;2022-08-18T05:09:53;10.27;;;9.35;;
19329;SDS011;9799;48.214;16.388;2022-08-18T05:13:15;10.93;;;9.45;;
19329;SDS011;9799;48.214;16.388;2022-08-18T05:16:36;11.05;;;9.90;;
19329;SDS011;9799;48.214;16.388;2022-08-18T05:20:01;11.40;;;9.85;;
19329;SDS011;9799;48.214;16.388;2022-08-18T05:23:23;15.45;;;8.98;;
19329;SDS011;9799;48.214;16.388;2022-08-18T05:26:44;14.73;;;10.15;;
19329;SDS011;9799;48.214;16.388;2022-08-18T05:30:06;20.75;;;10.65;;
19329;SDS011;9799;48.214;16.388;2022-08-18T05:33:28;11.52;;;10.48;;
19329;SDS011;9799;48.214;16.388;2022-08-18T05:36:57;11.05;;;9.60;;
19329;SDS011;9799;48.214;16.388;2022-08-18T05:40:27;11.35;;;9.52;;
19329;SDS011;9799;48.214;16.388;2022-08-18T05:43:50;11.18;;;9.38;;
19329;SDS011;9799;48.214;16.388;2022-08-18T05:47:22;9.98;;;8.95;;
19329;SDS011;9799;48.214;16.388;2022-08-18T05:50:45;15.95;;;9.65;;
19329;SDS011;9799;48.214;16.388;2022-08-18T05:54:08;9.70;;;8.75;;
19329;SDS011;9799;48.214;16.388;2022-08-18T05:57:49;17.20;;;9.98;;
19329;SDS011;9799;48.214;16.388;2022-08-18T06:01:18;11.18;;;9.15;;
19329;SDS011;9799;48.214;16.388;2022-08-18T06:04:43;16.08;;;9.45;;
19329;SDS011;9799;48.214;16.388;2022-08-18T06:08:09;14.60;;;9.57;;
19329;SDS011;9799;48.214;16.388;2022-08-18T06:11:34;10.98;;;9.00;;
19329;SDS011;9799;48.214;16.388;2022-08-18T06:14:58;10.45;;;9.30;;
19329;SDS011;9799;48.214;16.388;2022-08-18T06:18:30;16.98;;;9.27;;
19329;SDS011;9799;48.214;16.388;2022-08-18T06:22:02;13.18;;;9.57;;
19329;SDS011;9799;48.214;16.388;2022-08-18T06:25:34;12.35;;;8.80;;
19329;SDS011;9799;48.214;16.388;2022-08-18T06:29:10;13.25;;;9.13;;
19329;SDS011;9799;48.214;16.388;2022-08-18T06:36:31;13.35;;;8.18;;
19329;SDS011;9799;48.214;16.388;2022-08-18T06:39:58;10.30;;;8.43;;
19329;SDS011;9799;48.214;16.388;2022-08-18T06:43:20;9.90;;;8.93;;
19329;SDS011;9799;48.214;16.388;2022-08-18T06:46:44;18.98;;;7.70;;
19329;SDS011;9799;48.214;16.388;2022-08-18T06:50:10;8.73;;;7.28;;
19329;SDS011;9799;48.214;16.388;2022-08-18T06:53:48;9.60;;;8.15;;
19329;SDS011;9799;48.214;16.388;2022-08-18T06:57:20;10.40;;;7.53;;
19329;SDS011;9799;48.214;16.388;2022-08-18T07:00:44;10.02;;;7.72;;
19329;SDS011;9799;48.214;16.388;2022-08-18T07:08:21;12.05;;;8.15;;
19329;SDS011;9799;48.214;16.388;2022-08-18T07:11:57;10.60;;;8.35;;
19329;SDS011;9799;48.214;16.388;2022-08-18T07:15:22;11.00;;;8.20;;
19329;SDS011;9799;48.214;16.388;2022-08-18T07:18:44;18.38;;;8.95;;
19329;SDS011;9799;48.214;16.388;2022-08-18T07:22:07;10.30;;;8.45;;
19329;SDS011;9799;48.214;16.388;2022-08-18T07:25:32;10.63;;;7.95;;
19329;SDS011;9799;48.214;16.388;2022-08-18T07:29:11;9.50;;;8.23;;
19329;SDS011;9799;48.214;16.388;2022-08-18T07:32:34;11.05;;;8.80;;
19329;SDS011;9799;48.214;16.388;2022-08-18T07:36:00;12.60;;;8.98;;
19329;SDS011;9799;48.214;16.388;2022-08-18T07:39:28;11.73;;;8.90;;
19329;SDS011;9799;48.214;16.388;2022-08-18T07:42:53;10.23;;;9.23;;
19329;SDS011;9799;48.214;16.388;2022-08-18T07:46:20;11.02;;;8.98;;
19329;SDS011;9799;48.214;16.388;2022-08-18T07:49:46;10.02;;;9.10;;
19329;SDS011;9799;48.214;16.388;2022-08-18T07:53:09;9.45;;;8.30;;
19329;SDS011;9799;48.214;16.388;2022-08-18T07:56:45;9.93;;;8.55;;
19329;SDS011;9799;48.214;16.388;2022-08-18T08:00:13;11.63;;;8.90;;
19329;SDS011;9799;48.214;16.388;2022-08-18T08:03:41;8.98;;;8.10;;
19329;SDS011;9799;48.214;16.388;2022-08-18T08:07:11;9.55;;;7.85;;
19329;SDS011;9799;48.214;16.388;2022-08-18T08:10:39;9.05;;;8.10;;
19329;SDS011;9799;48.214;16.388;2022-08-18T08:14:16;9.48;;;8.57;;
19329;SDS011;9799;48.214;16.388;2022-08-18T08:17:47;8.75;;;7.95;;
19329;SDS011;9799;48.214;16.388;2022-08-18T08:21:15;8.57;;;7.88;;
19329;SDS011;9799;48.214;16.388;2022-08-18T08:24:41;12.23;;;8.93;;
19329;SDS011;9799;48.214;16.388;2022-08-18T08:28:13;12.93;;;8.82;;
19329;SDS011;9799;48.214;16.388;2022-08-18T08:31:51;10.27;;;8.68;;
19329;SDS011;9799;48.214;16.388;2022-08-18T08:35:18;9.15;;;7.90;;
19329;SDS011;9799;48.214;16.388;2022-08-18T08:38:44;8.50;;;7.65;;
19329;SDS011;9799;48.214;16.388;2022-08-18T08:42:08;10.55;;;8.90;;
19329;SDS011;9799;48.214;16.388;2022-08-18T08:45:34;9.55;;;8.25;;
19329;SDS011;9799;48.214;16.388;2022-08-18T08:49:00;9.02;;;8.23;;
19329;SDS011;9799;48.214;16.388;2022-08-18T08:52:28;8.75;;;7.93;;
19329;SDS011;9799;48.214;16.388;2022-08-18T08:55:54;11.40;;;8.65;;
19329;SDS011;9799;48.214;16.388;2022-08-18T08:59:20;11.05;;;8.63;;
19329;SDS011;9799;48.214;16.388;2022-08-18T09:02:48;15.00;;;9.20;;
19329;SDS011;9799;48.214;16.388;2022-08-18T09:06:21;10.25;;;8.82;;
19329;SDS011;9799;48.214;16.388;2022-08-18T09:09:55;10.55;;;9.13;;
19329;SDS011;9799;48.214;16.388;2022-08-18T09:13:38;9.23;;;8.35;;
19329;SDS011;9799;48.214;16.388;2022-08-18T09:17:23;9.48;;;8.35;;
19329;SDS011;9799;48.214;16.388;2022-08-18T09:21:02;10.73;;;9.63;;
19329;SDS011;9799;48.214;16.388;2022-08-18T09:24:39;12.30;;;8.07;;
19329;SDS011;9799;48.214;16.388;2022-08-18T09:28:06;11.27;;;8.85;;
19329;SDS011;9799;48.214;16.388;2022-08-18T09:31:30;10.82;;;8.85;;
19329;SDS011;9799;48.214;16.388;2022-08-18T09:34:54;9.27;;;8.38;;
19329;SDS011;9799;48.214;16.388;2022-08-18T09:38:26;10.90;;;8.55;;
19329;SDS011;9799;48.214;16.388;2022-08-18T09:42:11;13.35;;;8.48;;
19329;SDS011;9799;48.214;16.388;2022-08-18T09:49:31;15.65;;;14.20;;
19329;SDS011;9799;48.214;16.388;2022-08-18T09:53:14;18.67;;;14.23;;
19329;SDS011;9799;48.214;16.388;2022-08-18T10:00:44;10.88;;;9.50;;
19329;SDS011;9799;48.214;16.388;2022-08-18T10:07:52;22.98;;;20.77;;
19329;SDS011;9799;48.214;16.388;2022-08-18T10:11:18;12.73;;;11.02;;
19329;SDS011;9799;48.214;16.388;2022-08-18T10:14:55;13.93;;;8.82;;
19329;SDS011;9799;48.214;16.388;2022-08-18T10:18:41;13.18;;;8.88;;
19329;SDS011;9799;48.214;16.388;2022-08-18T10:22:11;12.98;;;7.95;;
19329;SDS011;9799;48.214;16.388;2022-08-18T10:25:34;9.55;;;8.07;;
19329;SDS011;9799;48.214;16.388;2022-08-18T10:28:58;16.02;;;8.68;;
19329;SDS011;9799;48.214;16.388;2022-08-18T10:32:35;9.82;;;8.70;;
19329;SDS011;9799;48.214;16.388;2022-08-18T10:35:59;15.20;;;8.05;;
19329;SDS011;9799;48.214;16.388;2022-08-18T10:39:21;11.48;;;8.48;;
19329;SDS011;9799;48.214;16.388;2022-08-18T10:42:47;13.30;;;8.05;;
19329;SDS011;9799;48.214;16.388;2022-08-18T10:46:13;10.38;;;7.85;;
19329;SDS011;9799;48.214;16.388;2022-08-18T10:49:38;9.10;;;8.18;;
19329;SDS011;9799;48.214;16.388;2022-08-18T10:53:02;9.75;;;7.57;;
19329;SDS011;9799;48.214;16.388;2022-08-18T10:56:32;79.13;;;13.18;;
19329;SDS011;9799;48.214;16.388;2022-08-18T10:59:56;14.52;;;8.02;;
19329;SDS011;9799;48.214;16.388;2022-08-18T11:03:26;10.60;;;7.85;;
19329;SDS011;9799;48.214;16.388;2022-08-18T11:07:05;8.30;;;7.60;;
19329;SDS011;9799;48.214;16.388;2022-08-18T11:10:34;13.60;;;7.30;;
19329;SDS011;9799;48.214;16.388;2022-08-18T11:14:00;10.57;;;7.22;;
19329;SDS011;9799;48.214;16.388;2022-08-18T11:17:32;11.80;;;7.72;;
19329;SDS011;9799;48.214;16.388;2022-08-18T11:21:21;8.95;;;7.10;;
19329;SDS011;9799;48.214;16.388;2022-08-18T11:24:45;8.73;;;7.07;;
19329;SDS011;9799;48.214;16.388;2022-08-18T11:28:13;9.68;;;8.00;;
19329;SDS011;9799;48.214;16.388;2022-08-18T11:31:35;9.80;;;7.32;;
19329;SDS011;9799;48.214;16.388;2022-08-18T11:34:59;13.10;;;9.68;;
19329;SDS011;9799;48.214;16.388;2022-08-18T11:38:23;11.55;;;8.68;;
19329;SDS011;9799;48.214;16.388;2022-08-18T11:41:48;11.85;;;7.22;;
19329;SDS011;9799;48.214;16.388;2022-08-18T11:45:11;12.90;;;8.85;;
19329;SDS011;9799;48.214;16.388;2022-08-18T11:48:36;12.77;;;7.03;;
19329;SDS011;9799;48.214;16.388;2022-08-18T11:52:14;23.88;;;18.17;;
19329;SDS011;9799;48.214;16.388;2022-08-18T11:55:37;15.80;;;10.77;;
19329;SDS011;9799;48.214;16.388;2022-08-18T11:59:00;12.43;;;11.05;;
19329;SDS011;9799;48.214;16.388;2022-08-18T12:02:24;7.55;;;6.68;;
19329;SDS011;9799;48.214;16.388;2022-08-18T12:05:47;7.30;;;6.60;;
19329;SDS011;9799;48.214;16.388;2022-08-18T12:09:14;13.70;;;9.20;;
19329;SDS011;9799;48.214;16.388;2022-08-18T12:12:43;9.63;;;8.75;;
19329;SDS011;9799;48.214;16.388;2022-08-18T12:16:08;8.35;;;6.53;;
19329;SDS011;9799;48.214;16.388;2022-08-18T12:19:31;10.93;;;7.65;;
19329;SDS011;9799;48.214;16.388;2022-08-18T12:22:55;9.20;;;7.10;;
19329;SDS011;9799;48.214;16.388;2022-08-18T12:26:17;8.95;;;7.28;;
19329;SDS011;9799;48.214;16.388;2022-08-18T12:29:38;14.18;;;6.82;;
19329;SDS011;9799;48.214;16.388;2022-08-18T12:33:01;8.38;;;6.47;;
19329;SDS011;9799;48.214;16.388;2022-08-18T12:36:22;8.25;;;6.93;;
19329;SDS011;9799;48.214;16.388;2022-08-18T12:39:43;7.70;;;6.28;;
19329;SDS011;9799;48.214;16.388;2022-08-18T12:43:05;9.77;;;6.13;;
19329;SDS011;9799;48.214;16.388;2022-08-18T12:46:26;9.93;;;6.80;;
19329;SDS011;9799;48.214;16.388;2022-08-18T12:49:50;12.23;;;7.00;;
19329;SDS011;9799;48.214;16.388;2022-08-18T12:53:12;8.30;;;6.72;;
19329;SDS011;9799;48.214;16.388;2022-08-18T12:56:33;6.40;;;5.82;;
19329;SDS011;9799;48.214;16.388;2022-08-18T12:59:54;7.75;;;6.60;;
19329;SDS011;9799;48.214;16.388;2022-08-18T13:03:15;9.35;;;6.93;;
19329;SDS011;9799;48.214;16.388;2022-08-18T13:06:39;11.95;;;5.68;;
19329;SDS011;9799;48.214;16.388;2022-08-18T13:10:04;10.40;;;6.85;;
19329;SDS011;9799;48.214;16.388;2022-08-18T13:13:26;11.98;;;6.60;;
19329;SDS011;9799;48.214;16.388;2022-08-18T13:16:47;7.13;;;5.15;;
19329;SDS011;9799;48.214;16.388;2022-08-18T13:20:12;6.03;;;5.38;;
19329;SDS011;9799;48.214;16.388;2022-08-18T13:23:36;5.13;;;4.40;;
19329;SDS011;9799;48.214;16.388;2022-08-18T13:26:58;6.10;;;5.47;;
19329;SDS011;9799;48.214;16.388;2022-08-18T13:30:19;6.93;;;5.07;;
19329;SDS011;9799;48.214;16.388;2022-08-18T13:33:41;6.18;;;4.55;;
19329;SDS011;9799;48.214;16.388;2022-08-18T13:37:02;8.63;;;5.30;;
19329;SDS011;9799;48.214;16.388;2022-08-18T13:40:25;4.82;;;4.43;;
19329;SDS011;9799;48.214;16.388;2022-08-18T13:43:46;7.97;;;5.50;;
19329;SDS011;9799;48.214;16.388;2022-08-18T13:47:07;11.27;;;5.05;;
19329;SDS011;9799;48.214;16.388;2022-08-18T13:50:29;7.15;;;4.43;;
19329;SDS011;9799;48.214;16.388;2022-08-18T13:53:50;6.72;;;4.65;;
19329;SDS011;9799;48.214;16.388;2022-08-18T13:57:12;8.23;;;4.65;;
19329;SDS011;9799;48.214;16.388;2022-08-18T14:00:34;5.43;;;4.30;;
19329;SDS011;9799;48.214;16.388;2022-08-18T14:03:55;14.40;;;4.68;;
19329;SDS011;9799;48.214;16.388;2022-08-18T14:07:16;5.82;;;3.60;;
19329;SDS011;9799;48.214;16.388;2022-08-18T14:10:38;9.50;;;4.80;;
19329;SDS011;9799;48.214;16.388;2022-08-18T14:14:03;9.10;;;5.10;;
19329;SDS011;9799;48.214;16.388;2022-08-18T14:17:25;7.97;;;4.55;;
19329;SDS011;9799;48.214;16.388;2022-08-18T14:20:46;9.65;;;4.95;;
19329;SDS011;9799;48.214;16.388;2022-08-18T14:24:25;7.50;;;5.60;;
19329;SDS011;9799;48.214;16.388;2022-08-18T14:28:04;7.07;;;4.63;;
19329;SDS011;9799;48.214;16.388;2022-08-18T14:31:29;7.82;;;4.15;;
19329;SDS011;9799;48.214;16.388;2022-08-18T14:34:51;9.05;;;4.72;;
19329;SDS011;9799;48.214;16.388;2022-08-18T14:38:13;7.57;;;4.75;;
19329;SDS011;9799;48.214;16.388;2022-08-18T14:41:35;7.43;;;5.07;;
19329;SDS011;9799;48.214;16.388;2022-08-18T14:44:57;5.53;;;4.22;;
19329;SDS011;9799;48.214;16.388;2022-08-18T14:48:20;6.40;;;5.05;;
19329;SDS011;9799;48.214;16.388;2022-08-18T14:51:41;8.90;;;4.72;;
19329;SDS011;9799;48.214;16.388;2022-08-18T14:55:03;8.55;;;6.30;;
19329;SDS011;9799;48.214;16.388;2022-08-18T14:58:26;8.40;;;5.90;;
19329;SDS011;9799;48.214;16.388;2022-08-18T15:01:49;7.38;;;5.03;;
19329;SDS011;9799;48.214;16.388;2022-08-18T15:05:12;8.27;;;5.75;;
19329;SDS011;9799;48.214;16.388;2022-08-18T15:08:33;9.00;;;5.32;;
19329;SDS011;9799;48.214;16.388;2022-08-18T15:11:56;9.93;;;5.13;;
19329;SDS011;9799;48.214;16.388;2022-08-18T15:15:18;8.73;;;5.10;;
19329;SDS011;9799;48.214;16.388;2022-08-18T15:18:39;8.63;;;4.97;;
19329;SDS011;9799;48.214;16.388;2022-08-18T15:22:02;7.50;;;4.38;;
19329;SDS011;9799;48.214;16.388;2022-08-18T15:25:42;5.07;;;4.43;;
19329;SDS011;9799;48.214;16.388;2022-08-18T15:29:04;10.75;;;5.20;;
19329;SDS011;9799;48.214;16.388;2022-08-18T15:32:27;8.40;;;4.88;;
19329;SDS011;9799;48.214;16.388;2022-08-18T15:35:48;11.80;;;4.82;;
19329;SDS011;9799;48.214;16.388;2022-08-18T15:39:11;6.55;;;4.90;;
19329;SDS011;9799;48.214;16.388;2022-08-18T15:42:32;7.28;;;5.28;;
19329;SDS011;9799;48.214;16.388;2022-08-18T15:45:53;13.75;;;6.97;;
19329;SDS011;9799;48.214;16.388;2022-08-18T15:49:14;9.60;;;7.28;;
19329;SDS011;9799;48.214;16.388;2022-08-18T15:52:43;13.82;;;6.70;;
19329;SDS011;9799;48.214;16.388;2022-08-18T15:56:12;14.95;;;8.43;;
19329;SDS011;9799;48.214;16.388;2022-08-18T15:59:34;15.43;;;7.88;;
19329;SDS011;9799;48.214;16.388;2022-08-18T16:02:56;7.60;;;5.90;;
19329;SDS011;9799;48.214;16.388;2022-08-18T16:06:20;23.85;;;13.23;;
19329;SDS011;9799;48.214;16.388;2022-08-18T16:09:44;12.80;;;7.28;;
19329;SDS011;9799;48.214;16.388;2022-08-18T16:13:07;13.35;;;6.45;;
19329;SDS011;9799;48.214;16.388;2022-08-18T16:16:28;21.85;;;11.88;;
19329;SDS011;9799;48.214;16.388;2022-08-18T16:19:49;11.63;;;5.57;;
19329;SDS011;9799;48.214;16.388;2022-08-18T16:23:10;15.10;;;5.57;;
19329;SDS011;9799;48.214;16.388;2022-08-18T16:26:32;8.60;;;4.00;;
19329;SDS011;9799;48.214;16.388;2022-08-18T16:29:55;6.72;;;4.47;;
19329;SDS011;9799;48.214;16.388;2022-08-18T16:33:16;10.75;;;5.22;;
19329;SDS011;9799;48.214;16.388;2022-08-18T16:36:37;8.98;;;3.90;;
19329;SDS011;9799;48.214;16.388;2022-08-18T16:39:58;9.73;;;6.45;;
19329;SDS011;9799;48.214;16.388;2022-08-18T16:43:19;6.78;;;5.00;;
19329;SDS011;9799;48.214;16.388;2022-08-18T16:46:42;10.05;;;4.75;;
19329;SDS011;9799;48.214;16.388;2022-08-18T16:50:04;13.70;;;5.43;;
19329;SDS011;9799;48.214;16.388;2022-08-18T16:53:26;11.25;;;6.18;;
19329;SDS011;9799;48.214;16.388;2022-08-18T16:56:48;6.00;;;4.55;;
19329;SDS011;9799;48.214;16.388;2022-08-18T17:00:09;15.80;;;12.80;;
19329;SDS011;9799;48.214;16.388;2022-08-18T17:03:50;11.80;;;6.93;;
19329;SDS011;9799;48.214;16.388;2022-08-18T17:07:27;16.83;;;5.50;;
19329;SDS011;9799;48.214;16.388;2022-08-18T17:10:49;13.50;;;5.18;;
19329;SDS011;9799;48.214;16.388;2022-08-18T17:14:10;9.63;;;5.22;;
19329;SDS011;9799;48.214;16.388;2022-08-18T17:17:31;16.98;;;5.57;;
19329;SDS011;9799;48.214;16.388;2022-08-18T17:20:55;9.35;;;5.07;;
19329;SDS011;9799;48.214;16.388;2022-08-18T17:24:16;10.40;;;4.72;;
19329;SDS011;9799;48.214;16.388;2022-08-18T17:27:39;8.50;;;4.47;;
19329;SDS011;9799;48.214;16.388;2022-08-18T17:31:02;9.93;;;4.38;;
19329;SDS011;9799;48.214;16.388;2022-08-18T17:34:26;8.25;;;4.25;;
19329;SDS011;9799;48.214;16.388;2022-08-18T17:37:53;7.95;;;4.03;;
19329;SDS011;9799;48.214;16.388;2022-08-18T17:41:18;8.05;;;4.55;;
19329;SDS011;9799;48.214;16.388;2022-08-18T17:44:42;10.63;;;4.75;;
19329;SDS011;9799;48.214;16.388;2022-08-18T17:48:06;11.18;;;3.63;;
19329;SDS011;9799;48.214;16.388;2022-08-18T17:51:33;8.00;;;3.35;;
19329;SDS011;9799;48.214;16.388;2022-08-18T17:55:00;7.55;;;3.63;;
19329;SDS011;9799;48.214;16.388;2022-08-18T17:58:28;6.95;;;3.08;;
19329;SDS011;9799;48.214;16.388;2022-08-18T18:02:09;6.88;;;3.63;;
19329;SDS011;9799;48.214;16.388;2022-08-18T18:05:31;6.25;;;3.08;;
19329;SDS011;9799;48.214;16.388;2022-08-18T18:08:57;7.57;;;2.60;;
19329;SDS011;9799;48.214;16.388;2022-08-18T18:12:22;3.58;;;2.58;;
19329;SDS011;9799;48.214;16.388;2022-08-18T18:15:47;5.90;;;2.53;;
19329;SDS011;9799;48.214;16.388;2022-08-18T18:19:10;7.47;;;2.95;;
19329;SDS011;9799;48.214;16.388;2022-08-18T18:22:32;4.53;;;2.90;;
19329;SDS011;9799;48.214;16.388;2022-08-18T18:25:53;3.28;;;2.30;;
19329;SDS011;9799;48.214;16.388;2022-08-18T18:29:20;9.80;;;2.75;;
19329;SDS011;9799;48.214;16.388;2022-08-18T18:32:49;8.85;;;3.40;;
19329;SDS011;9799;48.214;16.388;2022-08-18T18:36:12;6.30;;;3.20;;
19329;SDS011;9799;48.214;16.388;2022-08-18T18:39:54;5.10;;;3.47;;
19329;SDS011;9799;48.214;16.388;2022-08-18T18:43:18;4.00;;;3.00;;
19329;SDS011;9799;48.214;16.388;2022-08-18T18:46:44;9.75;;;7.57;;
19329;SDS011;9799;48.214;16.388;2022-08-18T18:50:11;8.00;;;4.57;;
19329;SDS011;9799;48.214;16.388;2022-08-18T18:53:39;9.70;;;3.72;;
19329;SDS011;9799;48.214;16.388;2022-08-18T18:57:11;7.15;;;3.42;;
19329;SDS011;9799;48.214;16.388;2022-08-18T19:00:39;11.18;;;4.60;;
19329;SDS011;9799;48.214;16.388;2022-08-18T19:04:08;5.78;;;4.25;;
19329;SDS011;9799;48.214;16.388;2022-08-18T19:07:36;9.75;;;4.55;;
19329;SDS011;9799;48.214;16.388;2022-08-18T19:11:08;8.82;;;4.70;;
19329;SDS011;9799;48.214;16.388;2022-08-18T19:14:37;6.85;;;4.13;;
19329;SDS011;9799;48.214;16.388;2022-08-18T19:18:09;6.65;;;4.82;;
19329;SDS011;9799;48.214;16.388;2022-08-18T19:21:42;9.25;;;4.20;;
19329;SDS011;9799;48.214;16.388;2022-08-18T19:25:06;10.35;;;5.05;;
19329;SDS011;9799;48.214;16.388;2022-08-18T19:28:34;6.38;;;4.43;;
19329;SDS011;9799;48.214;16.388;2022-08-18T19:32:00;10.43;;;3.42;;
19329;SDS011;9799;48.214;16.388;2022-08-18T19:35:26;8.32;;;4.22;;
19329;SDS011;9799;48.214;16.388;2022-08-18T19:38:59;4.93;;;3.70;;
19329;SDS011;9799;48.214;16.388;2022-08-18T19:42:26;10.70;;;4.35;;
19329;SDS011;9799;48.214;16.388;2022-08-18T19:45:58;7.15;;;5.10;;
19329;SDS011;9799;48.214;16.388;2022-08-18T19:49:23;4.60;;;4.07;;
19329;SDS011;9799;48.214;16.388;2022-08-18T19:52:54;10.90;;;5.05;;
19329;SDS011;9799;48.214;16.388;2022-08-18T19:56:34;10.40;;;5.38;;
19329;SDS011;9799;48.214;16.388;2022-08-18T20:00:11;10.48;;;4.93;;
19329;SDS011;9799;48.214;16.388;2022-08-18T20:03:48;8.85;;;4.68;;
19329;SDS011;9799;48.214;16.388;2022-08-18T20:07:28;9.20;;;5.10;;
19329;SDS011;9799;48.214;16.388;2022-08-18T20:11:12;10.30;;;4.50;;
19329;SDS011;9799;48.214;16.388;2022-08-18T20:14:57;7.35;;;4.47;;
19329;SDS011;9799;48.214;16.388;2022-08-18T20:18:21;7.63;;;4.90;;
19329;SDS011;9799;48.214;16.388;2022-08-18T20:21:59;12.05;;;4.43;;
19329;SDS011;9799;48.214;16.388;2022-08-18T20:25:38;8.77;;;4.00;;
19329;SDS011;9799;48.214;16.388;2022-08-18T20:29:02;8.43;;;4.65;;
19329;SDS011;9799;48.214;16.388;2022-08-18T20:32:28;9.52;;;5.55;;
19329;SDS011;9799;48.214;16.388;2022-08-18T20:35:58;12.23;;;5.32;;
19329;SDS011;9799;48.214;16.388;2022-08-18T20:39:30;14.65;;;4.65;;
19329;SDS011;9799;48.214;16.388;2022-08-18T20:43:04;6.50;;;4.00;;
19329;SDS011;9799;48.214;16.388;2022-08-18T20:46:42;8.65;;;4.70;;
19329;SDS011;9799;48.214;16.388;2022-08-18T20:50:20;8.32;;;4.75;;